• Join FlightAware (Why Join?)
  • Login
  • US Flag 
09:51PM EDT


 

Airport Tracker/Info


-or-


 

Live Flight TrackerFlight Track Log ✈ N675MC ✈ 18-Sep-2013 ✈ KORD - KDTW

Flight Track Log - Related Links

Times and Time Zones

All times are in EDT time to prevent confusion due to time zone crossing. See the N675MC flight status page for this flight to view local times or setup timezone preferences in your user account.

Time Position Orientation Groundspeed Altitude Reporting Facility
EDT Latitude Longitude Course Direction KTS MPH feet Rate Location/Type
03:30PM 41.9667 -87.8667 75° East 169 194 1,900  Level Chicago TRACON
03:31PM 41.9667 -87.7833 90° East 237 273 3,300 1,440 Climbing Chicago TRACON
03:32PM 41.9667 -87.7000 90° East 270 311 4,900 1,440 Climbing Chicago TRACON
03:33PM 42.0200 -87.3448 14° North  Level Estimated
03:33PM 41.9833 -87.5833 79° East 307 353 6,200  Level Chicago TRACON
03:34PM 42.0291 -87.2043 14° North  Level Estimated
03:34PM 42.0442 -87.5078 43° Northeast 296 341 9,300  Level Chicago Center
03:35PM 42.0381 -87.0637 75° East  Level Estimated
03:35PM 42.0808 -87.5975 299° West 284 327 11,400  Level Chicago Center
03:36PM 42.1114 -87.6981 292° West 293 337 13,300 1,920 Climbing Chicago Center
03:37PM 42.1958 -87.7119 353° North 314 361 15,400 1,800 Climbing Chicago Center
03:38PM 42.3028 -87.7136 359° North 320 368 17,100 1,080 Climbing Chicago Center
03:39PM 42.4019 -87.7167 359° North 347 399 17,700 960 Climbing Chicago Center
03:40PM 42.5078 -87.6956 North 377 434 19,200 1,440 Climbing Chicago Center
03:41PM 42.6117 -87.6650 12° North 391 450 20,700 1,440 Climbing Chicago Center
03:42PM 42.7414 -87.6278 12° North 403 464 22,200 360 Climbing Chicago Center
03:44PM 42.8321 -87.5871 66° East  Level FlightAware Approximate
03:47PM 43.0372 -87.0247 74° East 464 534 23,000  Level Chicago Center
03:48PM 43.0383 -86.8494 89° East 464 534 23,000  Level Chicago Center
03:49PM 43.0400 -86.6739 89° East 464 534 23,000  Level Chicago Center
03:50PM 43.0572 -86.4631 84° East 469 540 23,000  Level Chicago Center
03:51PM 42.9874 -86.8430 74° East  Level FlightAware Approximate
03:51PM 43.1078 -86.3014 67° East 462 532 23,000  Level Chicago Center
03:52PM 43.0096 -86.7366 74° East  Level FlightAware Approximate
03:53PM 43.0318 -86.6301 74° East  Level FlightAware Approximate
03:53PM 43.1561 -86.1333 68° East 465 535 23,000  Level Chicago Center
03:54PM 43.1936 -85.9536 74° East 477 549 23,000  Level Chicago Center
03:55PM 43.2025 -85.7653 86° East 485 558 23,000  Level Chicago Center
03:56PM 43.2150 -85.5756 85° East 493 567 23,000  Level Chicago Center
03:57PM 43.2283 -85.3917 84° East 487 560 23,000  Level Chicago Center
03:58PM 43.2206 -85.2158 93° East 459 528 23,000  Level Chicago Center
03:59PM 43.1953 -85.0394 101° East 470 541 23,000  Level Chicago Center
04:00PM 43.1644 -84.8294 101° East 470 541 23,000  Level Chicago Center
04:01PM 43.1411 -84.6611 101° East 448 516 23,000 -780 Level Chicago Center
04:02PM 43.1208 -84.5256 102° East 365 420 21,400 -1,800 Descending Chicago Center
04:03PM 43.0972 -84.3922 104° East 360 414 19,300 -2,160 Descending Chicago Center
04:04PM 43.0744 -84.2661 104° East 343 395 17,000 -2,100 Descending Chicago Center
04:05PM 43.0564 -84.1439 101° East 329 379 15,000 -2,100 Descending Chicago Center
04:06PM 43.0194 -84.0047 110° East 327 376 12,700 -1,320 Descending Chicago Center
04:07PM 42.9550 -83.8850 126° Southeast 313 360 12,100 -480 Descending Cleveland Center
04:07PM 42.9500 -83.8764 128° Southeast 318 366 12,100 -180 Level Cleveland Center
04:08PM 42.9069 -83.8064 130° Southeast 326 375 12,000  Descending Cleveland Center
04:08PM 42.8931 -83.7819 128° Southeast 324 373 12,100  Climbing Cleveland Center
04:09PM 42.8394 -83.7336 147° Southeast 303 349 12,000 -420 Descending Cleveland Center
04:09PM 42.8233 -83.7158 141° Southeast 308 354 11,700 -1,740 Descending Cleveland Center
04:10PM 42.7425 -83.6464 148° Southeast 290 334 9,600 -1,320 Descending Cleveland Center
04:11PM 42.6817 -83.6044 153° Southeast 296 341 9,000 -1,380 Descending Cleveland Center
04:12PM 42.6242 -83.5400 140° Southeast 298 343 7,300 -1,980 Descending Cleveland Center
04:13PM 42.6067 -83.5161 135° Southeast 301 346 7,000 -1,200 Descending Cleveland Center
04:13PM 42.5672 -83.4639 136° Southeast 275 316 6,100 -1,020 Descending Cleveland Center
04:14PM 42.5525 -83.4425 133° Southeast 281 323 6,000  Descending Cleveland Center
04:14PM 42.5203 -83.3947 132° Southeast 282 325 6,100 -240 Climbing Cleveland Center
04:15PM 42.4986 -83.3656 135° Southeast 279 321 5,800 -780 Descending Cleveland Center
04:15PM 42.4539 -83.3061 136° Southeast 275 316 5,200 -720 Descending Cleveland Center
04:16PM 42.4433 -83.2981 151° Southeast 270 311 5,100 -1,020 Descending Cleveland Center
04:16PM 42.3881 -83.2883 173° South 252 290 4,300 -1,200 Descending Cleveland Center
04:17PM 42.3728 -83.2875 178° South 259 298 3,900 -1,380 Descending Cleveland Center
04:17PM 42.3200 -83.3042 193° South 242 278 2,900 -1,260 Descending Cleveland Center
04:18PM 42.3067 -83.3092 196° South 248 285 2,600 -1,200 Descending Cleveland Center
04:18PM 42.2650 -83.3358 205° Southwest 180 207 1,700 -1,080 Descending Cleveland Center
04:19PM 42.2572 -83.3411 207° Southwest 202 232 1,500 -900 Descending Cleveland Center
04:19PM 42.2292 -83.3647 212° Southwest 143 165 800 -720 Descending Cleveland Center
04:20PM 42.2181 -83.3714 204° Southwest 172 198 800  Level Cleveland Center